createdAt,value
2018-03-01T00:00:29.315Z,33.67
2018-03-01T00:02:58.679Z,32.10
2018-03-01T00:05:29.118Z,31.60
2018-03-01T00:07:58.993Z,27.50
2018-03-01T00:10:29.766Z,27.73
2018-03-01T00:12:59.064Z,27.55
2018-03-01T00:15:28.531Z,31.33
2018-03-01T00:17:57.824Z,28.17
2018-03-01T00:20:27.083Z,26.10
2018-03-01T00:22:56.598Z,25.80
2018-03-01T00:25:25.783Z,28.33
2018-03-01T00:27:54.938Z,28.92
2018-03-01T00:30:26.663Z,30.98
2018-03-01T00:32:57.426Z,32.03
2018-03-01T00:35:26.561Z,28.27
2018-03-01T00:37:55.995Z,29.12
2018-03-01T00:40:25.365Z,26.12
2018-03-01T00:42:54.468Z,25.92
2018-03-01T00:45:25.996Z,31.08
2018-03-01T00:47:56.628Z,25.15
2018-03-01T00:50:26.545Z,27.60
2018-03-01T00:52:58.551Z,25.12
2018-03-01T00:55:34.568Z,25.33
2018-03-01T00:58:05.916Z,25.45
2018-03-01T01:00:39.530Z,27.23
2018-03-01T01:03:08.704Z,28.45
2018-03-01T01:05:38.138Z,32.65
2018-03-01T01:08:09.205Z,25.75
2018-03-01T01:10:38.141Z,31.02
2018-03-01T01:13:09.852Z,24.95
2018-03-01T01:15:39.122Z,28.02
2018-03-01T01:18:08.227Z,33.70
2018-03-01T01:20:39.286Z,31.20
2018-03-01T01:23:10.190Z,34.75
2018-03-01T01:25:40.181Z,33.35
2018-03-01T01:28:11.776Z,28.55
2018-03-01T01:30:41.916Z,25.92
2018-03-01T01:33:11.929Z,23.33
2018-03-01T01:38:16.244Z,26.00
2018-03-01T01:40:46.431Z,30.65
2018-03-01T01:43:16.286Z,32.75
2018-03-01T01:45:45.480Z,35.33
2018-03-01T01:48:14.891Z,36.30
2018-03-01T01:53:34.081Z,29.20
2018-03-01T01:56:03.176Z,33.33
2018-03-01T02:01:09.751Z,31.12
2018-03-01T02:03:39.046Z,33.22
2018-03-01T02:06:10.842Z,31.10
2018-03-01T02:08:40.509Z,33.13
2018-03-01T02:11:10.570Z,34.28
2018-03-01T02:13:40.675Z,33.95
2018-03-01T02:16:09.845Z,35.75
2018-03-01T02:18:39.845Z,38.40
2018-03-01T02:21:10.677Z,34.30
2018-03-01T02:23:40.824Z,32.80
2018-03-01T02:26:11.542Z,34.58
2018-03-01T02:28:40.591Z,35.85
2018-03-01T02:31:10.148Z,38.88
2018-03-01T02:33:39.717Z,31.60
2018-03-01T02:36:08.950Z,33.92
2018-03-01T02:38:39.766Z,34.17
2018-03-01T02:41:10.856Z,35.53
2018-03-01T02:43:42.998Z,30.67
2018-03-01T02:46:12.338Z,28.80
2018-03-01T02:48:41.604Z,31.17
2018-03-01T02:51:20.451Z,30.62
2018-03-01T02:53:51.172Z,36.42
2018-03-01T02:56:21.046Z,34.42
2018-03-01T02:58:53.006Z,33.85
2018-03-01T03:01:24.251Z,28.70
2018-03-01T03:03:54.422Z,31.50
2018-03-01T03:06:24.514Z,39.38
2018-03-01T03:08:53.930Z,38.47
2018-03-01T03:11:23.164Z,35.15
2018-03-01T03:13:52.471Z,34.78
2018-03-01T03:16:21.810Z,30.27
2018-03-01T03:18:52.754Z,27.02
2018-03-01T03:21:22.745Z,32.47
2018-03-01T03:23:53.779Z,36.67
2018-03-01T03:26:23.680Z,41.90
2018-03-01T03:28:53.704Z,37.38
2018-03-01T03:31:23.662Z,35.92
2018-03-01T03:33:52.763Z,36.63
2018-03-01T03:36:22.754Z,33.88
2018-03-01T03:38:53.397Z,29.98
2018-03-01T03:41:23.101Z,39.10
2018-03-01T03:43:52.200Z,32.63
2018-03-01T03:46:22.169Z,30.55
2018-03-01T03:48:53.076Z,28.60
2018-03-01T03:51:24.157Z,31.10
2018-03-01T03:53:54.225Z,34.22
2018-03-01T03:56:23.384Z,32.85
2018-03-01T04:01:27.011Z,33.03
2018-03-01T04:03:56.968Z,30.95
2018-03-01T04:06:26.157Z,33.95
2018-03-01T04:08:56.546Z,32.08
2018-03-01T04:14:01.940Z,34.25
2018-03-01T04:16:32.891Z,37.60
2018-03-01T04:19:03.057Z,32.33
2018-03-01T04:21:32.365Z,30.75
2018-03-01T04:24:02.477Z,37.47
2018-03-01T04:26:31.825Z,32.20
2018-03-01T04:29:01.925Z,33.70
2018-03-01T04:31:31.135Z,39.88
2018-03-01T04:34:00.497Z,33.28
2018-03-01T04:36:31.382Z,37.40
2018-03-01T04:39:03.016Z,33.47
2018-03-01T04:41:32.212Z,36.75
2018-03-01T04:44:02.356Z,36.40
2018-03-01T04:46:34.096Z,37.42
2018-03-01T04:49:03.022Z,28.58
2018-03-01T04:51:32.219Z,42.83
2018-03-01T04:54:02.441Z,32.75
2018-03-01T04:56:33.112Z,28.83
2018-03-01T04:59:04.244Z,40.20
2018-03-01T05:01:34.092Z,30.30
2018-03-01T05:04:03.329Z,25.58
2018-03-01T05:06:34.469Z,32.50
2018-03-01T05:09:03.690Z,26.90
2018-03-01T05:11:34.470Z,27.33
2018-03-01T05:14:04.506Z,28.98
2018-03-01T05:16:34.467Z,32.60
2018-03-01T05:19:03.861Z,33.45
2018-03-01T05:24:11.367Z,35.00
2018-03-01T05:26:40.608Z,29.83
2018-03-01T05:29:10.585Z,28.00
2018-03-01T05:31:40.641Z,32.00
2018-03-01T05:34:09.930Z,30.58
2018-03-01T05:36:40.392Z,30.50
2018-03-01T05:39:12.366Z,29.42
2018-03-01T05:41:44.393Z,32.15
2018-03-01T05:44:13.686Z,30.95
2018-03-01T05:46:42.894Z,30.90
2018-03-01T05:49:14.715Z,25.23
2018-03-01T05:51:48.601Z,27.50
2018-03-01T05:54:19.036Z,33.30
2018-03-01T05:56:48.726Z,41.17
2018-03-01T05:59:18.849Z,26.35
2018-03-01T06:01:50.276Z,29.77
2018-03-01T06:04:19.417Z,30.85
2018-03-01T06:06:49.215Z,28.40
2018-03-01T06:09:19.452Z,34.20
2018-03-01T06:11:49.397Z,28.92
2018-03-01T06:14:19.078Z,36.55
2018-03-01T06:16:53.824Z,28.70
2018-03-01T06:19:24.885Z,33.53
2018-03-01T06:24:29.525Z,27.65
2018-03-01T06:26:58.749Z,26.83
2018-03-01T06:29:28.151Z,30.50
2018-03-01T06:31:57.385Z,25.95
2018-03-01T06:34:27.184Z,29.35
2018-03-01T06:36:56.306Z,27.05
2018-03-01T06:39:26.973Z,29.00
2018-03-01T06:41:56.190Z,21.87
2018-03-01T06:44:28.586Z,32.00
2018-03-01T06:46:58.610Z,34.55
2018-03-01T06:49:31.259Z,28.33
2018-03-01T06:52:02.919Z,30.77
2018-03-01T06:54:33.255Z,30.52
2018-03-01T06:57:02.455Z,27.80
2018-03-01T06:59:31.579Z,30.83
2018-03-01T07:02:00.855Z,34.42
2018-03-01T07:04:30.004Z,31.67
2018-03-01T07:06:59.184Z,32.53
2018-03-01T07:09:30.062Z,32.78
2018-03-01T07:11:59.929Z,32.30
2018-03-01T07:14:30.246Z,35.33
2018-03-01T07:16:59.926Z,37.85
2018-03-01T07:19:29.584Z,35.97
2018-03-01T07:22:00.481Z,41.37
2018-03-01T07:24:29.875Z,41.45
2018-03-01T07:27:00.675Z,44.72
2018-03-01T07:29:30.966Z,38.72
2018-03-01T07:32:01.057Z,36.88
2018-03-01T07:34:30.500Z,39.45
2018-03-01T07:36:59.721Z,37.83
2018-03-01T07:39:28.752Z,37.83
2018-03-01T07:41:58.752Z,39.78
2018-03-01T07:44:28.130Z,42.88
2018-03-01T07:46:57.270Z,38.83
2018-03-01T07:49:29.914Z,45.33
2018-03-01T07:51:59.368Z,42.53
2018-03-01T07:54:29.326Z,36.72
2018-03-01T07:56:58.428Z,43.42
2018-03-01T07:59:28.876Z,43.08
2018-03-01T08:02:01.089Z,44.85
2018-03-01T08:04:31.199Z,46.65
2018-03-01T08:09:37.011Z,33.75
2018-03-01T08:12:07.701Z,39.92
2018-03-01T08:14:38.333Z,58.47
2018-03-01T08:17:07.581Z,39.75
2018-03-01T08:19:36.584Z,40.20
2018-03-01T08:22:08.204Z,36.83
2018-03-01T08:24:37.503Z,38.10
2018-03-01T08:27:07.330Z,34.17
2018-03-01T08:29:39.468Z,38.28
2018-03-01T08:32:09.029Z,36.97
2018-03-01T08:34:39.213Z,41.65
2018-03-01T08:37:11.316Z,49.33
2018-03-01T08:39:41.105Z,35.85
2018-03-01T08:42:10.309Z,44.22
2018-03-01T08:44:39.580Z,48.90
2018-03-01T08:47:08.775Z,43.05
2018-03-01T08:49:39.020Z,48.65
2018-03-01T08:52:14.222Z,38.50
2018-03-01T08:54:45.205Z,50.00
2018-03-01T08:57:16.135Z,41.67
2018-03-01T08:59:45.665Z,35.70
2018-03-01T09:02:15.584Z,37.20
2018-03-01T09:04:46.384Z,42.30
2018-03-01T09:07:16.025Z,39.55
2018-03-01T09:09:44.933Z,39.13
2018-03-01T09:12:16.274Z,42.45
2018-03-01T09:14:46.270Z,40.28
2018-03-01T09:17:16.480Z,44.28
2018-03-01T09:19:47.295Z,55.28
2018-03-01T09:22:16.440Z,44.33
2018-03-01T09:24:46.257Z,43.72
2018-03-01T09:27:15.580Z,43.53
2018-03-01T09:29:44.809Z,46.53
2018-03-01T09:32:15.659Z,44.30
2018-03-01T09:34:46.718Z,46.28
2018-03-01T09:37:15.628Z,43.85
2018-03-01T09:39:44.908Z,47.92
2018-03-01T09:42:14.063Z,41.60
2018-03-01T09:44:43.328Z,41.78
2018-03-01T09:47:12.214Z,42.05
2018-03-01T09:49:42.398Z,41.45
2018-03-01T09:52:12.494Z,37.47
2018-03-01T09:54:44.273Z,43.35
2018-03-01T09:57:13.636Z,38.85
2018-03-01T09:59:42.915Z,39.80
2018-03-01T10:02:12.134Z,38.75
2018-03-01T10:04:41.955Z,41.92
2018-03-01T10:07:11.319Z,37.42
2018-03-01T10:09:40.743Z,45.35
2018-03-01T10:12:10.160Z,44.40
2018-03-01T10:14:39.439Z,39.47
2018-03-01T10:17:09.370Z,40.90
2018-03-01T10:19:38.928Z,42.92
2018-03-01T10:22:10.640Z,39.92
2018-03-01T10:24:40.700Z,35.60
2018-03-01T10:27:10.689Z,34.03
2018-03-01T10:29:45.290Z,41.50
2018-03-01T10:32:14.524Z,38.17
2018-03-01T10:34:44.485Z,34.20
2018-03-01T10:37:14.493Z,37.08
2018-03-01T10:39:44.493Z,39.22
2018-03-01T10:42:13.848Z,34.83
2018-03-01T10:44:43.709Z,42.35
2018-03-01T10:47:13.829Z,33.10
2018-03-01T10:49:43.980Z,38.22
2018-03-01T10:52:16.406Z,39.72
2018-03-01T10:54:52.324Z,33.70
2018-03-01T10:59:56.658Z,28.65
2018-03-01T11:02:27.393Z,33.00
2018-03-01T11:04:58.245Z,39.13
2018-03-01T11:07:27.335Z,38.63
2018-03-01T11:10:00.989Z,38.63
2018-03-01T11:12:31.239Z,36.90
2018-03-01T11:15:07.550Z,38.17
2018-03-01T11:17:37.529Z,34.35
2018-03-01T11:20:09.013Z,31.27
2018-03-01T11:22:38.140Z,27.52
2018-03-01T11:25:08.218Z,28.98
2018-03-01T11:27:38.890Z,25.85
2018-03-01T11:30:09.014Z,25.08
2018-03-01T11:32:38.570Z,24.85
2018-03-01T11:35:07.818Z,27.17
2018-03-01T11:37:39.570Z,25.25
2018-03-01T11:40:09.600Z,24.77
2018-03-01T11:42:39.838Z,26.35
2018-03-01T11:45:09.675Z,23.62
2018-03-01T11:47:39.385Z,23.52
2018-03-01T11:50:08.578Z,23.12
2018-03-01T11:52:42.864Z,25.40
2018-03-01T11:55:13.815Z,22.33
2018-03-01T11:57:42.913Z,18.40
2018-03-01T12:00:13.079Z,19.80
2018-03-01T12:02:42.250Z,21.02
2018-03-01T12:08:12.432Z,22.05
2018-03-01T12:10:42.102Z,23.75
2018-03-01T12:13:11.202Z,20.77
2018-03-01T12:15:43.164Z,20.42
2018-03-01T12:18:12.014Z,31.67
2018-03-01T12:20:41.388Z,21.23
2018-03-01T12:23:12.132Z,20.77
2018-03-01T12:25:41.263Z,19.42
2018-03-01T12:28:11.208Z,16.60
2018-03-01T12:30:42.016Z,18.45
2018-03-01T12:33:12.069Z,19.12
2018-03-01T12:35:41.175Z,22.13
2018-03-01T12:38:10.379Z,17.80
2018-03-01T12:40:40.437Z,17.60
2018-03-01T12:43:09.442Z,18.98
2018-03-01T12:45:38.699Z,22.75
2018-03-01T12:48:07.835Z,16.83
2018-03-01T12:50:37.930Z,17.25
2018-03-01T12:53:09.146Z,18.52
2018-03-01T12:55:39.105Z,16.77
2018-03-01T12:58:12.753Z,17.85
2018-03-01T13:00:41.211Z,18.95
2018-03-01T13:03:10.442Z,18.70
2018-03-01T13:05:43.348Z,21.48
2018-03-01T13:08:12.561Z,18.23
2018-03-01T13:10:42.191Z,22.30
2018-03-01T13:13:11.385Z,17.73
2018-03-01T13:15:41.500Z,21.70
2018-03-01T13:18:13.944Z,16.95
2018-03-01T13:20:43.276Z,20.65
2018-03-01T13:23:12.398Z,22.42
2018-03-01T13:25:43.042Z,22.02
2018-03-01T13:28:12.006Z,23.67
2018-03-01T13:30:44.278Z,23.65
2018-03-01T13:33:33.238Z,18.58
2018-03-01T13:36:03.223Z,19.80
2018-03-01T13:38:33.083Z,21.83
2018-03-01T13:41:03.021Z,23.83
2018-03-01T13:46:51.662Z,19.83
2018-03-01T13:49:21.814Z,20.80
2018-03-01T13:51:50.913Z,20.20
2018-03-01T13:54:20.242Z,18.95
2018-03-01T13:56:49.417Z,18.67
2018-03-01T13:59:19.399Z,21.60
2018-03-01T14:01:49.171Z,17.50
2018-03-01T14:04:19.416Z,19.85
2018-03-01T14:09:51.678Z,24.50
2018-03-01T14:12:36.282Z,30.02
2018-03-01T14:15:06.459Z,18.20
2018-03-01T14:17:50.443Z,21.87
2018-03-01T14:20:37.201Z,24.37
2018-03-01T14:26:08.862Z,25.12
2018-03-01T14:28:43.782Z,26.77
2018-03-01T14:31:15.426Z,17.20
2018-03-01T14:33:45.742Z,20.62
2018-03-01T14:36:15.801Z,20.42
2018-03-01T14:38:45.168Z,18.35
2018-03-01T14:41:14.278Z,18.05
2018-03-01T14:46:20.272Z,16.67
2018-03-01T14:48:49.487Z,18.55
2018-03-01T14:51:18.778Z,19.25
2018-03-01T14:53:49.612Z,21.92
2018-03-01T14:56:20.179Z,15.73
2018-03-01T14:58:50.022Z,19.62
2018-03-01T15:01:19.573Z,19.42
2018-03-01T15:03:48.661Z,18.50
2018-03-01T15:06:17.862Z,19.83
2018-03-01T15:08:48.289Z,19.52
2018-03-01T15:11:22.982Z,15.43
2018-03-01T15:13:53.043Z,33.35
2018-03-01T15:16:23.218Z,23.02
2018-03-01T15:18:53.293Z,23.58
2018-03-01T15:21:22.542Z,30.30
2018-03-01T15:23:51.733Z,28.80
2018-03-01T15:26:21.987Z,27.10
2018-03-01T15:28:51.049Z,29.77
2018-03-01T15:31:20.115Z,18.55
2018-03-01T15:36:25.686Z,28.05
2018-03-01T15:38:57.318Z,22.08
2018-03-01T15:41:27.628Z,25.08
2018-03-01T15:43:57.883Z,22.60
2018-03-01T15:46:27.808Z,31.77
2018-03-01T15:51:31.943Z,33.20
2018-03-01T15:54:01.248Z,43.95
2018-03-01T15:56:32.422Z,32.38
2018-03-01T15:59:02.368Z,29.92
2018-03-01T16:01:33.018Z,27.20
2018-03-01T16:04:03.794Z,25.33
2018-03-01T16:06:33.067Z,36.03
2018-03-01T16:09:02.378Z,25.60
2018-03-01T16:11:32.697Z,34.42
2018-03-01T16:14:01.964Z,33.67
2018-03-01T16:16:30.952Z,28.45
2018-03-01T16:19:02.643Z,30.23
2018-03-01T16:21:32.727Z,34.83
2018-03-01T16:24:01.719Z,29.37
2018-03-01T16:26:31.772Z,30.17
2018-03-01T16:29:02.424Z,27.33
2018-03-01T16:31:31.435Z,28.10
2018-03-01T16:34:01.557Z,39.42
2018-03-01T16:36:30.786Z,22.98
2018-03-01T16:38:59.884Z,25.65
2018-03-01T16:44:03.750Z,28.87
2018-03-01T16:46:34.849Z,36.83
2018-03-01T16:49:09.953Z,40.55
2018-03-01T16:51:39.088Z,48.60
2018-03-01T16:54:09.173Z,34.40
2018-03-01T16:56:40.846Z,32.88
2018-03-01T16:59:10.061Z,48.35
2018-03-01T17:01:39.923Z,47.78
2018-03-01T17:04:10.350Z,37.00
2018-03-01T17:06:40.625Z,22.25
2018-03-01T17:09:09.938Z,30.37
2018-03-01T17:11:39.033Z,29.27
2018-03-01T17:14:09.797Z,32.45
2018-03-01T17:16:39.108Z,27.02
2018-03-01T17:19:08.303Z,50.25
2018-03-01T17:21:38.286Z,23.95
2018-03-01T17:24:08.434Z,23.95
2018-03-01T17:26:38.478Z,24.67
2018-03-01T17:29:10.033Z,26.52
2018-03-01T17:31:41.644Z,31.85
2018-03-01T17:34:11.755Z,26.95
2018-03-01T17:36:41.487Z,21.35
2018-03-01T17:41:45.952Z,25.52
2018-03-01T17:44:18.038Z,27.15
2018-03-01T17:49:29.203Z,34.20
2018-03-01T17:52:01.313Z,34.67
2018-03-01T17:54:30.537Z,32.78
2018-03-01T17:56:59.568Z,32.28
2018-03-01T17:59:28.868Z,29.02
2018-03-01T18:01:58.229Z,46.80
2018-03-01T18:04:28.862Z,35.13
2018-03-01T18:06:59.659Z,27.05
2018-03-01T18:09:30.556Z,28.08
2018-03-01T18:12:00.651Z,24.87
2018-03-01T18:14:30.091Z,41.33
2018-03-01T18:16:59.387Z,26.73
2018-03-01T18:22:05.298Z,36.63
2018-03-01T18:24:35.283Z,37.88
2018-03-01T18:27:06.450Z,30.65
2018-03-01T18:29:35.542Z,54.95
2018-03-01T18:32:05.397Z,105.12
2018-03-01T18:34:34.775Z,211.93
2018-03-01T18:37:04.153Z,141.60
2018-03-01T18:39:33.263Z,60.20
2018-03-01T18:42:05.064Z,40.10
2018-03-01T18:44:34.705Z,33.83
2018-03-01T18:47:04.767Z,25.95
2018-03-01T18:49:36.982Z,23.73
2018-03-01T18:52:06.164Z,33.88
2018-03-01T18:54:36.423Z,22.77
2018-03-01T18:57:06.845Z,37.38
2018-03-01T18:59:36.452Z,28.80
2018-03-01T19:02:06.545Z,30.02
2018-03-01T19:04:37.365Z,24.08
2018-03-01T19:07:07.536Z,21.95
2018-03-01T19:09:37.411Z,25.20
2018-03-01T19:12:09.324Z,26.08
2018-03-01T19:14:38.467Z,32.47
2018-03-01T19:17:09.145Z,24.40
2018-03-01T19:22:13.995Z,35.63
2018-03-01T19:24:44.235Z,30.37
2018-03-01T19:27:17.737Z,34.83
2018-03-01T19:29:46.872Z,41.88
2018-03-01T19:32:16.807Z,33.60
2018-03-01T19:34:46.865Z,33.33
2018-03-01T19:37:16.766Z,31.90
2018-03-01T19:39:49.464Z,31.73
2018-03-01T19:42:18.552Z,25.20
2018-03-01T19:44:47.732Z,24.55
2018-03-01T19:47:18.536Z,27.87
2018-03-01T19:49:49.288Z,24.00
2018-03-01T19:52:18.670Z,28.17
2018-03-01T19:54:47.870Z,28.55
2018-03-01T19:57:19.647Z,23.40
2018-03-01T19:59:48.775Z,26.62
2018-03-01T20:02:17.979Z,24.77
2018-03-01T20:04:47.031Z,28.55
2018-03-01T20:07:16.465Z,24.85
2018-03-01T20:09:45.759Z,21.40
2018-03-01T20:12:14.973Z,26.90
2018-03-01T20:14:45.142Z,32.30
2018-03-01T20:17:14.741Z,29.23
2018-03-01T20:19:46.767Z,32.40
2018-03-01T20:22:17.384Z,38.55
2018-03-01T20:24:46.707Z,39.35
2018-03-01T20:29:51.057Z,28.70
2018-03-01T20:32:21.031Z,25.27
2018-03-01T20:34:50.241Z,24.40
2018-03-01T20:37:19.547Z,22.67
2018-03-01T20:39:49.109Z,23.38
2018-03-01T20:42:18.637Z,25.77
2018-03-01T20:44:48.222Z,23.90
2018-03-01T20:47:17.305Z,23.58
2018-03-01T20:52:21.274Z,20.15
2018-03-01T20:54:52.949Z,19.90
2018-03-01T20:57:23.015Z,27.13
2018-03-01T20:59:52.914Z,20.02
2018-03-01T21:02:22.035Z,24.23
2018-03-01T21:04:52.935Z,27.00
2018-03-01T21:07:22.070Z,21.92
2018-03-01T21:09:51.690Z,22.50
2018-03-01T21:12:21.510Z,21.58
2018-03-01T21:14:50.687Z,23.02
2018-03-01T21:17:19.940Z,24.70
2018-03-01T21:19:49.892Z,29.67
2018-03-01T21:22:19.951Z,22.83
2018-03-01T21:24:49.229Z,30.33
2018-03-01T21:27:18.978Z,24.52
2018-03-01T21:29:48.043Z,27.87
2018-03-01T21:32:18.310Z,22.02
2018-03-01T21:34:50.156Z,25.35
2018-03-01T21:37:19.323Z,25.27
2018-03-01T21:39:48.443Z,22.45
2018-03-01T21:42:17.772Z,23.62
2018-03-01T21:44:48.548Z,23.25
2018-03-01T21:47:17.748Z,21.45
2018-03-01T21:49:48.620Z,21.35
2018-03-01T21:52:18.681Z,22.87
2018-03-01T21:54:48.630Z,22.33
2018-03-01T21:57:20.385Z,19.35
2018-03-01T21:59:56.035Z,21.67
2018-03-01T22:02:28.021Z,19.40
2018-03-01T22:04:57.457Z,21.83
2018-03-01T22:07:27.255Z,22.67
2018-03-01T22:09:57.100Z,27.50
2018-03-01T22:12:26.338Z,23.55
2018-03-01T22:14:55.459Z,23.17
2018-03-01T22:17:25.371Z,20.42
2018-03-01T22:19:55.201Z,20.45
2018-03-01T22:22:24.172Z,27.17
2018-03-01T22:24:53.372Z,23.33
2018-03-01T22:27:22.482Z,23.20
2018-03-01T22:29:51.607Z,20.00
2018-03-01T22:32:21.031Z,20.90
2018-03-01T22:34:50.283Z,28.05
2018-03-01T22:37:19.388Z,29.65
2018-03-01T22:39:50.292Z,27.00
2018-03-01T22:42:19.300Z,24.87
2018-03-01T22:44:48.501Z,20.55
2018-03-01T22:47:18.450Z,20.60
2018-03-01T22:49:48.220Z,22.65
2018-03-01T22:52:17.287Z,25.67
2018-03-01T22:54:47.258Z,24.77
2018-03-01T22:57:18.879Z,23.95
2018-03-01T22:59:49.762Z,30.80
2018-03-01T23:02:18.892Z,27.25
2018-03-01T23:04:48.097Z,29.00
2018-03-01T23:07:17.205Z,28.00
2018-03-01T23:09:46.541Z,26.55
2018-03-01T23:12:15.628Z,27.13
2018-03-01T23:14:45.634Z,22.45
2018-03-01T23:17:15.776Z,21.40
2018-03-01T23:19:44.772Z,21.98
2018-03-01T23:22:14.670Z,20.62
2018-03-01T23:24:44.662Z,20.88
2018-03-01T23:27:13.781Z,26.75
2018-03-01T23:29:42.884Z,22.50
2018-03-01T23:32:11.840Z,24.10
2018-03-01T23:34:41.036Z,20.55
2018-03-01T23:37:10.202Z,25.55
2018-03-01T23:39:39.347Z,19.80
2018-03-01T23:42:08.434Z,25.50
2018-03-01T23:44:41.611Z,19.77
2018-03-01T23:47:10.790Z,18.70
2018-03-01T23:49:40.034Z,20.73
2018-03-01T23:52:09.316Z,20.85
2018-03-01T23:54:39.645Z,26.92
2018-03-01T23:57:08.670Z,22.50
2018-03-01T23:59:38.997Z,23.55
